sensor_id;sensor_type;location;lat;lon;timestamp;P1;durP1;ratioP1;P2;durP2;ratioP2
31910;SDS011;18457;52.432;16.914;2023-04-06T00:02:12;34.50;;;17.50;;
31910;SDS011;18457;52.432;16.914;2023-04-06T00:04:44;37.80;;;17.60;;
31910;SDS011;18457;52.432;16.914;2023-04-06T00:07:16;40.80;;;17.90;;
31910;SDS011;18457;52.432;16.914;2023-04-06T00:09:48;35.30;;;18.10;;
31910;SDS011;18457;52.432;16.914;2023-04-06T00:12:20;42.10;;;16.40;;
31910;SDS011;18457;52.432;16.914;2023-04-06T00:14:52;39.20;;;17.90;;
31910;SDS011;18457;52.432;16.914;2023-04-06T00:17:24;36.30;;;16.80;;
31910;SDS011;18457;52.432;16.914;2023-04-06T00:19:56;42.80;;;18.40;;
31910;SDS011;18457;52.432;16.914;2023-04-06T00:22:28;42.90;;;17.70;;
31910;SDS011;18457;52.432;16.914;2023-04-06T00:25:00;37.30;;;17.20;;
31910;SDS011;18457;52.432;16.914;2023-04-06T00:27:32;26.60;;;12.80;;
31910;SDS011;18457;52.432;16.914;2023-04-06T00:30:04;38.30;;;17.60;;
31910;SDS011;18457;52.432;16.914;2023-04-06T00:32:37;41.60;;;17.90;;
31910;SDS011;18457;52.432;16.914;2023-04-06T00:35:10;45.80;;;19.60;;
31910;SDS011;18457;52.432;16.914;2023-04-06T00:37:42;46.60;;;19.10;;
31910;SDS011;18457;52.432;16.914;2023-04-06T00:40:16;42.70;;;19.10;;
31910;SDS011;18457;52.432;16.914;2023-04-06T00:42:48;45.70;;;18.90;;
31910;SDS011;18457;52.432;16.914;2023-04-06T00:45:20;26.30;;;13.30;;
31910;SDS011;18457;52.432;16.914;2023-04-06T00:47:52;45.10;;;19.80;;
31910;SDS011;18457;52.432;16.914;2023-04-06T00:50:25;50.20;;;21.20;;
31910;SDS011;18457;52.432;16.914;2023-04-06T00:52:57;44.60;;;19.90;;
31910;SDS011;18457;52.432;16.914;2023-04-06T00:55:30;42.30;;;19.70;;
31910;SDS011;18457;52.432;16.914;2023-04-06T00:58:02;48.60;;;19.70;;
31910;SDS011;18457;52.432;16.914;2023-04-06T01:00:39;52.70;;;21.60;;
31910;SDS011;18457;52.432;16.914;2023-04-06T01:03:11;53.00;;;20.20;;
31910;SDS011;18457;52.432;16.914;2023-04-06T01:05:44;41.90;;;19.40;;
31910;SDS011;18457;52.432;16.914;2023-04-06T01:08:22;47.00;;;20.30;;
31910;SDS011;18457;52.432;16.914;2023-04-06T01:10:58;45.20;;;22.00;;
31910;SDS011;18457;52.432;16.914;2023-04-06T01:13:31;47.40;;;21.50;;
31910;SDS011;18457;52.432;16.914;2023-04-06T01:16:06;46.60;;;20.70;;
31910;SDS011;18457;52.432;16.914;2023-04-06T01:18:57;46.20;;;22.10;;
31910;SDS011;18457;52.432;16.914;2023-04-06T01:21:32;45.80;;;22.10;;
31910;SDS011;18457;52.432;16.914;2023-04-06T01:24:27;48.00;;;21.20;;
31910;SDS011;18457;52.432;16.914;2023-04-06T01:27:07;50.20;;;22.90;;
31910;SDS011;18457;52.432;16.914;2023-04-06T01:30:18;54.80;;;22.90;;
31910;SDS011;18457;52.432;16.914;2023-04-06T01:33:01;44.40;;;22.30;;
31910;SDS011;18457;52.432;16.914;2023-04-06T01:35:56;50.90;;;21.80;;
31910;SDS011;18457;52.432;16.914;2023-04-06T01:38:28;46.70;;;21.70;;
31910;SDS011;18457;52.432;16.914;2023-04-06T01:41:00;49.70;;;24.30;;
31910;SDS011;18457;52.432;16.914;2023-04-06T01:43:36;55.00;;;22.70;;
31910;SDS011;18457;52.432;16.914;2023-04-06T01:46:10;57.70;;;22.30;;
31910;SDS011;18457;52.432;16.914;2023-04-06T01:48:44;48.40;;;22.30;;
31910;SDS011;18457;52.432;16.914;2023-04-06T01:51:23;50.20;;;23.20;;
31910;SDS011;18457;52.432;16.914;2023-04-06T01:54:01;49.30;;;23.10;;
31910;SDS011;18457;52.432;16.914;2023-04-06T01:56:52;47.00;;;22.00;;
31910;SDS011;18457;52.432;16.914;2023-04-06T01:59:33;55.70;;;25.50;;
31910;SDS011;18457;52.432;16.914;2023-04-06T02:02:09;50.80;;;24.00;;
31910;SDS011;18457;52.432;16.914;2023-04-06T02:04:44;53.00;;;25.00;;
31910;SDS011;18457;52.432;16.914;2023-04-06T02:07:16;50.00;;;23.00;;
31910;SDS011;18457;52.432;16.914;2023-04-06T02:09:48;63.50;;;24.20;;
31910;SDS011;18457;52.432;16.914;2023-04-06T02:12:25;52.30;;;22.70;;
31910;SDS011;18457;52.432;16.914;2023-04-06T02:14:57;56.60;;;24.50;;
31910;SDS011;18457;52.432;16.914;2023-04-06T02:17:29;51.20;;;24.30;;
31910;SDS011;18457;52.432;16.914;2023-04-06T02:20:01;49.80;;;24.70;;
31910;SDS011;18457;52.432;16.914;2023-04-06T02:22:33;60.40;;;24.60;;
31910;SDS011;18457;52.432;16.914;2023-04-06T02:25:05;52.50;;;24.20;;
31910;SDS011;18457;52.432;16.914;2023-04-06T02:27:38;54.90;;;24.30;;
31910;SDS011;18457;52.432;16.914;2023-04-06T02:30:11;64.20;;;24.60;;
31910;SDS011;18457;52.432;16.914;2023-04-06T02:32:43;53.90;;;25.00;;
31910;SDS011;18457;52.432;16.914;2023-04-06T02:35:15;40.30;;;19.50;;
31910;SDS011;18457;52.432;16.914;2023-04-06T02:37:48;54.60;;;24.80;;
31910;SDS011;18457;52.432;16.914;2023-04-06T02:42:52;60.60;;;25.60;;
31910;SDS011;18457;52.432;16.914;2023-04-06T02:45:29;61.30;;;25.40;;
31910;SDS011;18457;52.432;16.914;2023-04-06T02:48:01;48.60;;;24.00;;
31910;SDS011;18457;52.432;16.914;2023-04-06T02:50:34;70.50;;;25.80;;
31910;SDS011;18457;52.432;16.914;2023-04-06T02:53:07;54.10;;;24.60;;
31910;SDS011;18457;52.432;16.914;2023-04-06T02:55:39;59.50;;;25.30;;
31910;SDS011;18457;52.432;16.914;2023-04-06T02:58:11;33.90;;;18.20;;
31910;SDS011;18457;52.432;16.914;2023-04-06T03:00:50;56.10;;;25.10;;
31910;SDS011;18457;52.432;16.914;2023-04-06T03:03:22;47.60;;;23.60;;
31910;SDS011;18457;52.432;16.914;2023-04-06T03:05:54;58.00;;;24.70;;
31910;SDS011;18457;52.432;16.914;2023-04-06T03:08:28;51.90;;;24.50;;
31910;SDS011;18457;52.432;16.914;2023-04-06T03:11:00;55.90;;;24.20;;
31910;SDS011;18457;52.432;16.914;2023-04-06T03:13:37;52.90;;;23.60;;
31910;SDS011;18457;52.432;16.914;2023-04-06T03:16:09;54.50;;;24.70;;
31910;SDS011;18457;52.432;16.914;2023-04-06T03:21:14;50.00;;;23.70;;
31910;SDS011;18457;52.432;16.914;2023-04-06T03:23:49;58.60;;;26.20;;
31910;SDS011;18457;52.432;16.914;2023-04-06T03:26:21;53.20;;;25.20;;
31910;SDS011;18457;52.432;16.914;2023-04-06T03:28:53;50.90;;;24.50;;
31910;SDS011;18457;52.432;16.914;2023-04-06T03:31:28;50.90;;;25.20;;
31910;SDS011;18457;52.432;16.914;2023-04-06T03:34:06;50.70;;;23.10;;
31910;SDS011;18457;52.432;16.914;2023-04-06T03:36:39;53.00;;;23.90;;
31910;SDS011;18457;52.432;16.914;2023-04-06T03:39:10;54.20;;;24.10;;
31910;SDS011;18457;52.432;16.914;2023-04-06T03:41:43;53.90;;;25.00;;
31910;SDS011;18457;52.432;16.914;2023-04-06T03:44:36;56.00;;;25.10;;
31910;SDS011;18457;52.432;16.914;2023-04-06T03:47:08;45.50;;;22.80;;
31910;SDS011;18457;52.432;16.914;2023-04-06T03:49:40;52.60;;;25.00;;
31910;SDS011;18457;52.432;16.914;2023-04-06T03:52:13;50.00;;;22.70;;
31910;SDS011;18457;52.432;16.914;2023-04-06T03:54:45;57.00;;;23.00;;
31910;SDS011;18457;52.432;16.914;2023-04-06T03:57:17;54.40;;;24.40;;
31910;SDS011;18457;52.432;16.914;2023-04-06T03:59:49;47.80;;;23.40;;
31910;SDS011;18457;52.432;16.914;2023-04-06T04:02:21;49.40;;;25.30;;
31910;SDS011;18457;52.432;16.914;2023-04-06T04:04:53;58.80;;;25.00;;
31910;SDS011;18457;52.432;16.914;2023-04-06T04:09:56;43.90;;;22.30;;
31910;SDS011;18457;52.432;16.914;2023-04-06T04:12:29;43.20;;;24.50;;
31910;SDS011;18457;52.432;16.914;2023-04-06T04:15:01;48.60;;;23.80;;
31910;SDS011;18457;52.432;16.914;2023-04-06T04:17:33;58.30;;;24.60;;
31910;SDS011;18457;52.432;16.914;2023-04-06T04:20:07;52.90;;;25.00;;
31910;SDS011;18457;52.432;16.914;2023-04-06T04:22:40;48.20;;;24.60;;
31910;SDS011;18457;52.432;16.914;2023-04-06T04:25:13;53.70;;;25.40;;
31910;SDS011;18457;52.432;16.914;2023-04-06T04:27:48;53.10;;;24.40;;
31910;SDS011;18457;52.432;16.914;2023-04-06T04:30:21;53.80;;;24.40;;
31910;SDS011;18457;52.432;16.914;2023-04-06T04:32:53;56.10;;;24.90;;
31910;SDS011;18457;52.432;16.914;2023-04-06T04:35:26;62.10;;;25.20;;
31910;SDS011;18457;52.432;16.914;2023-04-06T04:37:58;50.50;;;24.30;;
31910;SDS011;18457;52.432;16.914;2023-04-06T04:40:31;48.50;;;24.70;;
31910;SDS011;18457;52.432;16.914;2023-04-06T04:43:09;53.90;;;23.50;;
31910;SDS011;18457;52.432;16.914;2023-04-06T04:45:41;37.60;;;18.20;;
31910;SDS011;18457;52.432;16.914;2023-04-06T04:48:20;44.70;;;23.30;;
31910;SDS011;18457;52.432;16.914;2023-04-06T04:50:55;48.00;;;22.90;;
31910;SDS011;18457;52.432;16.914;2023-04-06T04:53:29;58.00;;;25.90;;
31910;SDS011;18457;52.432;16.914;2023-04-06T04:56:05;50.30;;;24.20;;
31910;SDS011;18457;52.432;16.914;2023-04-06T04:58:37;39.90;;;19.40;;
31910;SDS011;18457;52.432;16.914;2023-04-06T05:01:09;59.60;;;24.20;;
31910;SDS011;18457;52.432;16.914;2023-04-06T05:06:15;58.60;;;24.60;;
31910;SDS011;18457;52.432;16.914;2023-04-06T05:08:49;58.60;;;25.70;;
31910;SDS011;18457;52.432;16.914;2023-04-06T05:11:21;59.20;;;26.70;;
31910;SDS011;18457;52.432;16.914;2023-04-06T05:13:58;60.80;;;26.00;;
31910;SDS011;18457;52.432;16.914;2023-04-06T05:19:01;61.60;;;24.40;;
31910;SDS011;18457;52.432;16.914;2023-04-06T05:21:40;53.50;;;24.70;;
31910;SDS011;18457;52.432;16.914;2023-04-06T05:24:12;67.30;;;24.40;;
31910;SDS011;18457;52.432;16.914;2023-04-06T05:26:45;55.20;;;25.60;;
31910;SDS011;18457;52.432;16.914;2023-04-06T05:29:21;65.20;;;25.90;;
31910;SDS011;18457;52.432;16.914;2023-04-06T05:31:53;65.70;;;25.90;;
31910;SDS011;18457;52.432;16.914;2023-04-06T05:34:26;52.80;;;21.90;;
31910;SDS011;18457;52.432;16.914;2023-04-06T05:36:59;46.60;;;21.00;;
31910;SDS011;18457;52.432;16.914;2023-04-06T05:39:31;47.50;;;23.80;;
31910;SDS011;18457;52.432;16.914;2023-04-06T05:42:05;49.60;;;24.00;;
31910;SDS011;18457;52.432;16.914;2023-04-06T05:44:49;57.30;;;23.40;;
31910;SDS011;18457;52.432;16.914;2023-04-06T05:47:22;58.60;;;23.30;;
31910;SDS011;18457;52.432;16.914;2023-04-06T05:50:00;53.70;;;23.30;;
31910;SDS011;18457;52.432;16.914;2023-04-06T05:52:37;50.50;;;22.10;;
31910;SDS011;18457;52.432;16.914;2023-04-06T05:55:13;50.80;;;24.10;;
31910;SDS011;18457;52.432;16.914;2023-04-06T05:57:46;50.50;;;22.00;;
31910;SDS011;18457;52.432;16.914;2023-04-06T06:00:19;46.00;;;20.30;;
31910;SDS011;18457;52.432;16.914;2023-04-06T06:02:56;43.90;;;20.60;;
31910;SDS011;18457;52.432;16.914;2023-04-06T06:05:29;50.40;;;22.70;;
31910;SDS011;18457;52.432;16.914;2023-04-06T06:08:07;50.90;;;22.30;;
31910;SDS011;18457;52.432;16.914;2023-04-06T06:10:39;45.40;;;21.90;;
31910;SDS011;18457;52.432;16.914;2023-04-06T06:13:13;47.10;;;22.10;;
31910;SDS011;18457;52.432;16.914;2023-04-06T06:15:45;47.60;;;22.00;;
31910;SDS011;18457;52.432;16.914;2023-04-06T06:18:18;49.30;;;21.30;;
31910;SDS011;18457;52.432;16.914;2023-04-06T06:20:54;48.50;;;22.60;;
31910;SDS011;18457;52.432;16.914;2023-04-06T06:23:26;58.10;;;23.10;;
31910;SDS011;18457;52.432;16.914;2023-04-06T06:25:57;54.30;;;22.10;;
31910;SDS011;18457;52.432;16.914;2023-04-06T06:31:01;47.10;;;21.90;;
31910;SDS011;18457;52.432;16.914;2023-04-06T06:33:33;48.50;;;23.30;;
31910;SDS011;18457;52.432;16.914;2023-04-06T06:36:05;50.30;;;22.60;;
31910;SDS011;18457;52.432;16.914;2023-04-06T06:38:41;42.70;;;22.60;;
31910;SDS011;18457;52.432;16.914;2023-04-06T06:41:14;52.00;;;23.00;;
31910;SDS011;18457;52.432;16.914;2023-04-06T06:43:46;48.40;;;23.10;;
31910;SDS011;18457;52.432;16.914;2023-04-06T06:46:19;42.30;;;22.60;;
31910;SDS011;18457;52.432;16.914;2023-04-06T06:51:22;54.90;;;23.20;;
31910;SDS011;18457;52.432;16.914;2023-04-06T06:53:54;35.70;;;17.80;;
31910;SDS011;18457;52.432;16.914;2023-04-06T06:56:26;35.70;;;17.80;;
31910;SDS011;18457;52.432;16.914;2023-04-06T06:58:58;37.40;;;15.10;;
31910;SDS011;18457;52.432;16.914;2023-04-06T07:01:30;56.70;;;21.90;;
31910;SDS011;18457;52.432;16.914;2023-04-06T07:04:03;51.50;;;21.10;;
31910;SDS011;18457;52.432;16.914;2023-04-06T07:06:37;39.20;;;20.70;;
31910;SDS011;18457;52.432;16.914;2023-04-06T07:09:09;48.00;;;23.60;;
31910;SDS011;18457;52.432;16.914;2023-04-06T07:11:41;47.30;;;21.80;;
31910;SDS011;18457;52.432;16.914;2023-04-06T07:14:14;51.10;;;21.70;;
31910;SDS011;18457;52.432;16.914;2023-04-06T07:16:46;40.90;;;20.00;;
31910;SDS011;18457;52.432;16.914;2023-04-06T07:19:21;37.70;;;18.10;;
31910;SDS011;18457;52.432;16.914;2023-04-06T07:21:53;29.10;;;14.00;;
31910;SDS011;18457;52.432;16.914;2023-04-06T07:24:26;36.50;;;18.80;;
31910;SDS011;18457;52.432;16.914;2023-04-06T07:26:58;35.20;;;17.20;;
31910;SDS011;18457;52.432;16.914;2023-04-06T07:29:30;31.80;;;15.40;;
31910;SDS011;18457;52.432;16.914;2023-04-06T07:32:03;27.90;;;14.50;;
31910;SDS011;18457;52.432;16.914;2023-04-06T07:34:35;26.70;;;13.50;;
31910;SDS011;18457;52.432;16.914;2023-04-06T07:37:08;29.40;;;13.70;;
31910;SDS011;18457;52.432;16.914;2023-04-06T07:39:40;23.40;;;10.50;;
31910;SDS011;18457;52.432;16.914;2023-04-06T07:44:44;25.00;;;11.10;;
31910;SDS011;18457;52.432;16.914;2023-04-06T07:47:16;28.90;;;11.50;;
31910;SDS011;18457;52.432;16.914;2023-04-06T07:49:48;23.90;;;12.20;;
31910;SDS011;18457;52.432;16.914;2023-04-06T07:52:20;26.00;;;11.50;;
31910;SDS011;18457;52.432;16.914;2023-04-06T07:54:52;24.70;;;11.30;;
31910;SDS011;18457;52.432;16.914;2023-04-06T07:57:25;22.80;;;10.70;;
31910;SDS011;18457;52.432;16.914;2023-04-06T07:59:57;21.40;;;10.80;;
31910;SDS011;18457;52.432;16.914;2023-04-06T08:05:00;18.30;;;9.70;;
31910;SDS011;18457;52.432;16.914;2023-04-06T08:07:31;24.60;;;10.70;;
31910;SDS011;18457;52.432;16.914;2023-04-06T08:10:04;20.60;;;10.00;;
31910;SDS011;18457;52.432;16.914;2023-04-06T08:12:37;22.80;;;10.10;;
31910;SDS011;18457;52.432;16.914;2023-04-06T08:15:34;20.20;;;10.30;;
31910;SDS011;18457;52.432;16.914;2023-04-06T08:18:30;16.80;;;9.20;;
31910;SDS011;18457;52.432;16.914;2023-04-06T08:21:55;19.60;;;10.70;;
31910;SDS011;18457;52.432;16.914;2023-04-06T08:25:42;20.90;;;9.90;;
31910;SDS011;18457;52.432;16.914;2023-04-06T08:28:14;32.60;;;11.40;;
31910;SDS011;18457;52.432;16.914;2023-04-06T08:30:49;20.10;;;10.00;;
31910;SDS011;18457;52.432;16.914;2023-04-06T08:33:21;19.70;;;10.80;;
31910;SDS011;18457;52.432;16.914;2023-04-06T08:35:56;23.90;;;11.20;;
31910;SDS011;18457;52.432;16.914;2023-04-06T08:38:28;21.40;;;11.20;;
31910;SDS011;18457;52.432;16.914;2023-04-06T08:41:00;23.40;;;11.70;;
31910;SDS011;18457;52.432;16.914;2023-04-06T08:43:38;24.80;;;11.80;;
31910;SDS011;18457;52.432;16.914;2023-04-06T08:46:14;22.50;;;10.50;;
31910;SDS011;18457;52.432;16.914;2023-04-06T08:48:47;21.20;;;11.20;;
31910;SDS011;18457;52.432;16.914;2023-04-06T08:51:19;20.20;;;12.20;;
31910;SDS011;18457;52.432;16.914;2023-04-06T08:53:53;20.80;;;10.80;;
31910;SDS011;18457;52.432;16.914;2023-04-06T08:56:26;20.50;;;10.60;;
31910;SDS011;18457;52.432;16.914;2023-04-06T08:59:01;23.80;;;12.40;;
31910;SDS011;18457;52.432;16.914;2023-04-06T09:01:36;22.20;;;11.70;;
31910;SDS011;18457;52.432;16.914;2023-04-06T09:04:12;24.40;;;12.00;;
31910;SDS011;18457;52.432;16.914;2023-04-06T09:06:46;21.20;;;11.50;;
31910;SDS011;18457;52.432;16.914;2023-04-06T09:11:53;21.60;;;10.40;;
31910;SDS011;18457;52.432;16.914;2023-04-06T09:14:34;32.20;;;13.20;;
31910;SDS011;18457;52.432;16.914;2023-04-06T09:17:08;24.30;;;10.50;;
31910;SDS011;18457;52.432;16.914;2023-04-06T09:19:50;17.10;;;8.30;;
31910;SDS011;18457;52.432;16.914;2023-04-06T09:22:22;17.10;;;8.60;;
31910;SDS011;18457;52.432;16.914;2023-04-06T09:24:56;28.50;;;10.80;;
31910;SDS011;18457;52.432;16.914;2023-04-06T09:27:31;24.20;;;11.50;;
31910;SDS011;18457;52.432;16.914;2023-04-06T09:30:05;17.00;;;9.00;;
31910;SDS011;18457;52.432;16.914;2023-04-06T09:32:46;19.00;;;9.00;;
31910;SDS011;18457;52.432;16.914;2023-04-06T09:35:20;38.20;;;14.80;;
31910;SDS011;18457;52.432;16.914;2023-04-06T09:37:55;26.80;;;11.00;;
31910;SDS011;18457;52.432;16.914;2023-04-06T09:40:27;18.70;;;9.40;;
31910;SDS011;18457;52.432;16.914;2023-04-06T09:42:59;19.20;;;9.20;;
31910;SDS011;18457;52.432;16.914;2023-04-06T09:45:35;18.40;;;8.50;;
31910;SDS011;18457;52.432;16.914;2023-04-06T09:48:08;18.10;;;7.30;;
31910;SDS011;18457;52.432;16.914;2023-04-06T09:50:40;16.80;;;7.00;;
31910;SDS011;18457;52.432;16.914;2023-04-06T09:53:12;17.30;;;7.30;;
31910;SDS011;18457;52.432;16.914;2023-04-06T09:55:46;21.90;;;8.40;;
31910;SDS011;18457;52.432;16.914;2023-04-06T09:58:21;17.30;;;7.80;;
31910;SDS011;18457;52.432;16.914;2023-04-06T10:00:58;13.80;;;7.30;;
31910;SDS011;18457;52.432;16.914;2023-04-06T10:03:35;14.50;;;7.10;;
31910;SDS011;18457;52.432;16.914;2023-04-06T10:06:15;8.10;;;5.20;;
31910;SDS011;18457;52.432;16.914;2023-04-06T10:08:52;13.60;;;7.40;;
31910;SDS011;18457;52.432;16.914;2023-04-06T10:11:26;12.90;;;7.70;;
31910;SDS011;18457;52.432;16.914;2023-04-06T10:14:00;14.30;;;8.30;;
31910;SDS011;18457;52.432;16.914;2023-04-06T10:16:32;11.80;;;7.20;;
31910;SDS011;18457;52.432;16.914;2023-04-06T10:19:06;10.80;;;6.70;;
31910;SDS011;18457;52.432;16.914;2023-04-06T10:21:44;12.10;;;6.70;;
31910;SDS011;18457;52.432;16.914;2023-04-06T10:24:19;12.80;;;6.40;;
31910;SDS011;18457;52.432;16.914;2023-04-06T10:26:58;10.00;;;6.50;;
31910;SDS011;18457;52.432;16.914;2023-04-06T10:29:41;17.40;;;6.80;;
31910;SDS011;18457;52.432;16.914;2023-04-06T10:32:15;10.10;;;6.40;;
31910;SDS011;18457;52.432;16.914;2023-04-06T10:34:48;14.80;;;6.30;;
31910;SDS011;18457;52.432;16.914;2023-04-06T10:37:20;11.30;;;5.20;;
31910;SDS011;18457;52.432;16.914;2023-04-06T10:39:53;12.30;;;7.20;;
31910;SDS011;18457;52.432;16.914;2023-04-06T10:42:37;13.50;;;6.80;;
31910;SDS011;18457;52.432;16.914;2023-04-06T10:45:18;13.60;;;4.70;;
31910;SDS011;18457;52.432;16.914;2023-04-06T10:47:51;14.60;;;7.00;;
31910;SDS011;18457;52.432;16.914;2023-04-06T10:50:25;19.90;;;7.30;;
31910;SDS011;18457;52.432;16.914;2023-04-06T10:52:59;16.70;;;7.50;;
31910;SDS011;18457;52.432;16.914;2023-04-06T10:55:33;16.90;;;6.90;;
31910;SDS011;18457;52.432;16.914;2023-04-06T10:58:10;15.60;;;6.60;;
31910;SDS011;18457;52.432;16.914;2023-04-06T11:00:44;18.50;;;8.90;;
31910;SDS011;18457;52.432;16.914;2023-04-06T11:03:19;17.90;;;8.00;;
31910;SDS011;18457;52.432;16.914;2023-04-06T11:05:52;12.40;;;7.20;;
31910;SDS011;18457;52.432;16.914;2023-04-06T11:08:26;18.60;;;7.50;;
31910;SDS011;18457;52.432;16.914;2023-04-06T11:11:05;14.30;;;7.80;;
31910;SDS011;18457;52.432;16.914;2023-04-06T11:13:43;17.50;;;7.20;;
31910;SDS011;18457;52.432;16.914;2023-04-06T11:16:16;13.30;;;7.30;;
31910;SDS011;18457;52.432;16.914;2023-04-06T11:18:50;15.70;;;8.80;;
31910;SDS011;18457;52.432;16.914;2023-04-06T11:21:34;16.10;;;8.40;;
31910;SDS011;18457;52.432;16.914;2023-04-06T11:24:09;15.20;;;7.70;;
31910;SDS011;18457;52.432;16.914;2023-04-06T11:26:43;12.80;;;7.60;;
31910;SDS011;18457;52.432;16.914;2023-04-06T11:29:19;24.40;;;9.10;;
31910;SDS011;18457;52.432;16.914;2023-04-06T11:31:53;24.30;;;10.40;;
31910;SDS011;18457;52.432;16.914;2023-04-06T11:34:29;18.10;;;7.70;;
31910;SDS011;18457;52.432;16.914;2023-04-06T11:37:07;14.30;;;8.10;;
31910;SDS011;18457;52.432;16.914;2023-04-06T11:39:42;21.80;;;9.80;;
31910;SDS011;18457;52.432;16.914;2023-04-06T11:42:23;20.50;;;9.30;;
31910;SDS011;18457;52.432;16.914;2023-04-06T11:44:57;12.20;;;7.80;;
31910;SDS011;18457;52.432;16.914;2023-04-06T11:47:32;24.00;;;9.00;;
31910;SDS011;18457;52.432;16.914;2023-04-06T11:50:06;26.50;;;10.60;;
31910;SDS011;18457;52.432;16.914;2023-04-06T11:52:40;25.10;;;12.20;;
31910;SDS011;18457;52.432;16.914;2023-04-06T11:57:45;25.50;;;11.50;;
31910;SDS011;18457;52.432;16.914;2023-04-06T12:00:20;26.20;;;12.50;;
31910;SDS011;18457;52.432;16.914;2023-04-06T12:05:23;15.00;;;8.90;;
31910;SDS011;18457;52.432;16.914;2023-04-06T12:07:55;12.40;;;8.00;;
31910;SDS011;18457;52.432;16.914;2023-04-06T12:10:31;13.70;;;7.90;;
31910;SDS011;18457;52.432;16.914;2023-04-06T12:13:03;12.10;;;7.20;;
31910;SDS011;18457;52.432;16.914;2023-04-06T12:15:35;21.40;;;8.10;;
31910;SDS011;18457;52.432;16.914;2023-04-06T12:18:07;19.40;;;12.10;;
31910;SDS011;18457;52.432;16.914;2023-04-06T12:20:39;33.50;;;11.10;;
31910;SDS011;18457;52.432;16.914;2023-04-06T12:25:43;14.00;;;7.40;;
31910;SDS011;18457;52.432;16.914;2023-04-06T12:28:15;17.30;;;9.50;;
31910;SDS011;18457;52.432;16.914;2023-04-06T12:30:50;12.90;;;8.40;;
31910;SDS011;18457;52.432;16.914;2023-04-06T12:33:23;14.10;;;8.90;;
31910;SDS011;18457;52.432;16.914;2023-04-06T12:35:55;16.40;;;9.10;;
31910;SDS011;18457;52.432;16.914;2023-04-06T12:38:27;14.20;;;8.80;;
31910;SDS011;18457;52.432;16.914;2023-04-06T12:40:59;13.10;;;9.10;;
31910;SDS011;18457;52.432;16.914;2023-04-06T12:43:31;14.90;;;9.40;;
31910;SDS011;18457;52.432;16.914;2023-04-06T12:46:03;15.60;;;9.60;;
31910;SDS011;18457;52.432;16.914;2023-04-06T12:48:35;16.70;;;8.50;;
31910;SDS011;18457;52.432;16.914;2023-04-06T12:51:08;18.40;;;11.30;;
31910;SDS011;18457;52.432;16.914;2023-04-06T12:53:40;15.00;;;8.90;;
31910;SDS011;18457;52.432;16.914;2023-04-06T12:56:12;13.60;;;9.70;;
31910;SDS011;18457;52.432;16.914;2023-04-06T12:58:46;12.90;;;9.00;;
31910;SDS011;18457;52.432;16.914;2023-04-06T13:01:19;17.50;;;9.90;;
31910;SDS011;18457;52.432;16.914;2023-04-06T13:03:51;12.60;;;7.90;;
31910;SDS011;18457;52.432;16.914;2023-04-06T13:06:23;17.50;;;10.70;;
31910;SDS011;18457;52.432;16.914;2023-04-06T13:08:57;17.60;;;9.70;;
31910;SDS011;18457;52.432;16.914;2023-04-06T13:11:29;17.60;;;9.70;;
31910;SDS011;18457;52.432;16.914;2023-04-06T13:14:01;18.30;;;9.30;;
31910;SDS011;18457;52.432;16.914;2023-04-06T13:16:33;16.20;;;9.80;;
31910;SDS011;18457;52.432;16.914;2023-04-06T13:19:05;24.90;;;10.20;;
31910;SDS011;18457;52.432;16.914;2023-04-06T13:21:38;23.50;;;10.90;;
31910;SDS011;18457;52.432;16.914;2023-04-06T13:24:10;51.70;;;16.20;;
31910;SDS011;18457;52.432;16.914;2023-04-06T13:26:44;22.90;;;12.60;;
31910;SDS011;18457;52.432;16.914;2023-04-06T13:29:16;12.60;;;8.60;;
31910;SDS011;18457;52.432;16.914;2023-04-06T13:31:49;17.50;;;9.50;;
31910;SDS011;18457;52.432;16.914;2023-04-06T13:34:21;18.40;;;9.90;;
31910;SDS011;18457;52.432;16.914;2023-04-06T13:36:53;14.50;;;9.70;;
31910;SDS011;18457;52.432;16.914;2023-04-06T13:39:25;15.10;;;9.40;;
31910;SDS011;18457;52.432;16.914;2023-04-06T13:41:57;20.30;;;8.40;;
31910;SDS011;18457;52.432;16.914;2023-04-06T13:44:32;17.50;;;9.00;;
31910;SDS011;18457;52.432;16.914;2023-04-06T13:47:04;17.00;;;9.50;;
31910;SDS011;18457;52.432;16.914;2023-04-06T13:49:37;13.80;;;9.60;;
31910;SDS011;18457;52.432;16.914;2023-04-06T13:52:09;15.10;;;6.90;;
31910;SDS011;18457;52.432;16.914;2023-04-06T13:54:41;14.10;;;8.00;;
31910;SDS011;18457;52.432;16.914;2023-04-06T13:57:12;12.00;;;7.10;;
31910;SDS011;18457;52.432;16.914;2023-04-06T13:59:45;13.60;;;9.00;;
31910;SDS011;18457;52.432;16.914;2023-04-06T14:02:19;23.30;;;10.70;;
31910;SDS011;18457;52.432;16.914;2023-04-06T14:04:57;21.50;;;12.50;;
31910;SDS011;18457;52.432;16.914;2023-04-06T14:07:29;20.80;;;11.00;;
31910;SDS011;18457;52.432;16.914;2023-04-06T14:10:01;16.10;;;9.60;;
31910;SDS011;18457;52.432;16.914;2023-04-06T14:15:05;16.00;;;9.90;;
31910;SDS011;18457;52.432;16.914;2023-04-06T14:17:38;21.30;;;10.60;;
31910;SDS011;18457;52.432;16.914;2023-04-06T14:20:11;31.60;;;13.40;;
31910;SDS011;18457;52.432;16.914;2023-04-06T14:22:44;27.70;;;12.20;;
31910;SDS011;18457;52.432;16.914;2023-04-06T14:25:18;14.90;;;9.60;;
31910;SDS011;18457;52.432;16.914;2023-04-06T14:30:21;18.10;;;10.30;;
31910;SDS011;18457;52.432;16.914;2023-04-06T14:32:53;15.90;;;9.70;;
31910;SDS011;18457;52.432;16.914;2023-04-06T14:35:28;14.30;;;8.90;;
31910;SDS011;18457;52.432;16.914;2023-04-06T14:38:01;17.80;;;9.00;;
31910;SDS011;18457;52.432;16.914;2023-04-06T14:40:35;19.60;;;9.40;;
31910;SDS011;18457;52.432;16.914;2023-04-06T14:43:07;24.90;;;11.40;;
31910;SDS011;18457;52.432;16.914;2023-04-06T14:45:39;16.80;;;9.50;;
31910;SDS011;18457;52.432;16.914;2023-04-06T14:48:11;12.20;;;7.00;;
31910;SDS011;18457;52.432;16.914;2023-04-06T14:50:52;20.90;;;11.90;;
31910;SDS011;18457;52.432;16.914;2023-04-06T14:53:25;16.70;;;10.00;;
31910;SDS011;18457;52.432;16.914;2023-04-06T14:55:57;15.30;;;10.50;;
31910;SDS011;18457;52.432;16.914;2023-04-06T14:58:30;15.50;;;10.50;;
31910;SDS011;18457;52.432;16.914;2023-04-06T15:01:02;15.00;;;9.00;;
31910;SDS011;18457;52.432;16.914;2023-04-06T15:03:36;18.90;;;10.60;;
31910;SDS011;18457;52.432;16.914;2023-04-06T15:06:11;14.70;;;8.90;;
31910;SDS011;18457;52.432;16.914;2023-04-06T15:08:45;14.80;;;8.80;;
31910;SDS011;18457;52.432;16.914;2023-04-06T15:11:18;13.10;;;8.70;;
31910;SDS011;18457;52.432;16.914;2023-04-06T15:13:50;15.00;;;8.80;;
31910;SDS011;18457;52.432;16.914;2023-04-06T15:16:23;16.80;;;9.80;;
31910;SDS011;18457;52.432;16.914;2023-04-06T15:18:55;25.10;;;10.80;;
31910;SDS011;18457;52.432;16.914;2023-04-06T15:21:27;20.80;;;10.50;;
31910;SDS011;18457;52.432;16.914;2023-04-06T15:23:59;17.20;;;10.90;;
31910;SDS011;18457;52.432;16.914;2023-04-06T15:26:31;18.30;;;11.30;;
31910;SDS011;18457;52.432;16.914;2023-04-06T15:29:03;15.70;;;9.30;;
31910;SDS011;18457;52.432;16.914;2023-04-06T15:31:35;18.40;;;9.20;;
31910;SDS011;18457;52.432;16.914;2023-04-06T15:34:08;32.50;;;10.50;;